Time;durP1;ratioP1;P1;durP2;ratioP2;P2;SDS_P1;SDS_P2;PMS_P1;PMS_P2;Temp;Humidity;BMP_temperature;BMP_pressure;BME280_temperature;BME280_humidity;BME280_pressure;Samples;Min_cycle;Max_cycle;Signal;HPM_P1;HPM_P2
2022/08/20 00:00:53;;;;;;;0.00;0.00;;;;;;;18.03;81.73;100189.53;4992177;28;20709;-74
2022/08/20 00:03:26;;;;;;;0.10;0.10;;;;;;;17.99;81.69;100183.16;4992410;28;20177;-74
2022/08/20 00:05:56;;;;;;;0.00;0.00;;;;;;;17.98;80.07;100189.84;4992687;28;20543;-74
2022/08/20 00:08:22;;;;;;;0.00;0.00;;;;;;;18.03;81.29;100186.78;4991996;28;20193;-75
2022/08/20 00:10:49;;;;;;;0.00;0.00;;;;;;;18.02;81.51;100185.97;4991943;28;20223;-74
2022/08/20 00:13:19;;;;;;;0.00;0.00;;;;;;;18.01;81.76;100186.34;4992225;28;20538;-74
2022/08/20 00:15:45;;;;;;;0.00;0.00;;;;;;;17.96;81.45;100183.91;4992182;28;20319;-74
2022/08/20 00:18:12;;;;;;;0.20;0.20;;;;;;;17.90;81.41;100182.59;4991860;28;20664;-75
2022/08/20 00:20:41;;;;;;;0.07;0.07;;;;;;;17.80;81.27;100179.28;4991811;28;20169;-75
2022/08/20 00:23:07;;;;;;;0.00;0.00;;;;;;;17.76;79.66;100186.69;4992063;28;20688;-74
2022/08/20 00:25:33;;;;;;;0.00;0.00;;;;;;;17.75;79.30;100187.84;4992138;28;20165;-74
2022/08/20 00:28:00;;;;;;;0.00;0.00;;;;;;;17.79;79.06;100185.16;4991765;28;20197;-74
2022/08/20 00:30:26;;;;;;;0.00;0.00;;;;;;;17.82;79.92;100189.97;4990640;28;20283;-74
2022/08/20 00:32:58;;;;;;;0.00;0.00;;;;;;;17.83;81.16;100188.78;4991738;28;20269;-74
2022/08/20 00:35:26;;;;;;;0.00;0.00;;;;;;;17.87;81.48;100192.41;4991970;28;20177;-74
2022/08/20 00:37:52;;;;;;;0.00;0.00;;;;;;;17.90;82.13;100191.69;4991537;28;20184;-74
2022/08/20 00:40:22;;;;;;;0.00;0.00;;;;;;;17.99;82.73;100200.53;4989570;28;20636;-74
2022/08/20 00:42:52;;;;;;;0.00;0.00;;;;;;;18.06;81.72;100189.59;4991718;28;20170;-75
2022/08/20 00:45:19;;;;;;;0.00;0.00;;;;;;;18.08;81.04;100192.00;4991663;28;20176;-74
2022/08/20 00:47:45;;;;;;;0.00;0.00;;;;;;;18.13;81.06;100183.41;4991382;28;20649;-74
2022/08/20 00:50:15;;;;;;;0.00;0.00;;;;;;;18.15;80.75;100192.13;4991241;28;20208;-75
2022/08/20 00:52:43;;;;;;;0.00;0.00;;;;;;;18.14;79.94;100196.88;4991684;28;20184;-74
2022/08/20 00:55:10;;;;;;;0.00;0.00;;;;;;;18.11;80.66;100196.81;4991893;28;20200;-74
2022/08/20 00:57:41;;;;;;;0.00;0.00;;;;;;;17.97;81.09;100191.03;4991228;28;20184;-74
2022/08/20 01:00:13;;;;;;;0.00;0.00;;;;;;;17.82;81.82;100201.03;4991318;28;20180;-74
2022/08/20 01:02:39;;;;;;;0.10;0.10;;;;;;;17.74;80.58;100196.50;4991465;28;20177;-75
2022/08/20 01:05:08;;;;;;;0.00;0.00;;;;;;;17.75;79.76;100195.34;4991445;28;20716;-74
2022/08/20 01:07:34;;;;;;;0.00;0.00;;;;;;;17.77;80.40;100207.63;4991232;28;20220;-74
2022/08/20 01:10:13;;;;;;;0.40;0.40;;;;;;;17.79;80.60;100210.84;4991080;28;20203;-74
2022/08/20 01:12:43;;;;;;;0.33;0.33;;;;;;;17.74;80.13;100215.84;4991429;28;20165;-75
2022/08/20 01:15:13;;;;;;;0.10;0.10;;;;;;;17.64;79.98;100211.69;4991430;28;20180;-74
2022/08/20 01:17:44;;;;;;;0.00;0.00;;;;;;;17.64;80.05;100214.44;4991120;28;20201;-74
2022/08/20 01:20:15;;;;;;;0.00;0.00;;;;;;;17.71;78.93;100222.91;4991599;28;20177;-75
2022/08/20 01:23:31;;;;;;;0.00;0.00;;;;;;;17.83;78.43;100227.50;4991281;28;20170;-74
2022/08/20 01:26:08;;;;;;;0.00;0.00;;;;;;;17.96;79.70;100217.06;4991685;28;20372;-75
2022/08/20 01:28:57;;;;;;;0.00;0.00;;;;;;;18.05;80.83;100209.31;4990934;28;20165;-74
2022/08/20 01:31:28;;;;;;;0.00;0.00;;;;;;;17.93;79.66;100220.53;4991525;28;20204;-75
2022/08/20 01:33:56;;;;;;;0.00;0.00;;;;;;;17.82;79.38;100207.34;4991200;28;20180;-74
2022/08/20 01:36:29;;;;;;;0.00;0.00;;;;;;;17.78;80.06;100220.28;4991115;28;20176;-75
2022/08/20 01:38:55;;;;;;;0.00;0.00;;;;;;;17.75;79.92;100218.25;4989599;28;20212;-74
2022/08/20 01:41:45;;;;;;;0.00;0.00;;;;;;;17.76;79.16;100217.09;4992394;28;20622;-74
2022/08/20 01:44:11;;;;;;;0.00;0.00;;;;;;;17.76;79.70;100213.53;4994935;28;20184;-75
2022/08/20 01:46:40;;;;;;;0.00;0.00;;;;;;;17.78;80.10;100217.50;4994804;28;20260;-75
2022/08/20 01:49:13;;;;;;;0.00;0.00;;;;;;;17.75;80.29;100217.44;4994358;28;20180;-75
2022/08/20 01:51:39;;;;;;;0.00;0.00;;;;;;;17.74;80.93;100213.09;4994901;28;20300;-75
2022/08/20 01:54:06;;;;;;;0.00;0.00;;;;;;;17.72;80.99;100220.94;4994753;28;20629;-74
2022/08/20 01:56:32;;;;;;;0.00;0.00;;;;;;;17.69;81.53;100221.69;4994645;28;20166;-75
2022/08/20 01:59:01;;;;;;;0.00;0.00;;;;;;;17.75;82.09;100218.25;4994771;28;20508;-74
2022/08/20 02:01:39;;;;;;;0.00;0.00;;;;;;;17.80;81.32;100217.16;4994617;28;20235;-75
2022/08/20 02:04:07;;;;;;;0.00;0.00;;;;;;;17.77;80.82;100215.91;4994658;28;20169;-74
2022/08/20 02:06:36;;;;;;;0.00;0.00;;;;;;;17.63;81.28;100210.06;4994507;28;20262;-74
2022/08/20 02:09:03;;;;;;;0.00;0.00;;;;;;;17.47;82.32;100206.59;4994239;28;20182;-74
2022/08/20 02:11:30;;;;;;;0.00;0.00;;;;;;;17.41;82.95;100202.53;4994421;28;20260;-74
2022/08/20 02:13:57;;;;;;;0.00;0.00;;;;;;;17.43;82.04;100206.53;4994432;28;20173;-74
2022/08/20 02:16:28;;;;;;;0.00;0.00;;;;;;;17.43;82.94;100208.50;4994349;28;20170;-74
2022/08/20 02:18:56;;;;;;;0.00;0.00;;;;;;;17.43;82.13;100209.28;4993878;28;20169;-75
2022/08/20 02:21:24;;;;;;;0.00;0.00;;;;;;;17.39;82.76;100204.88;4994373;28;20265;-74
2022/08/20 02:23:49;;;;;;;0.00;0.00;;;;;;;17.25;84.41;100195.13;4994475;28;20170;-74
2022/08/20 02:26:17;;;;;;;0.00;0.00;;;;;;;17.21;83.59;100199.78;4994186;28;20268;-74
2022/08/20 02:28:48;;;;;;;0.00;0.00;;;;;;;17.26;82.44;100204.22;4993741;28;20252;-74
2022/08/20 02:31:15;;;;;;;0.00;0.00;;;;;;;17.37;82.03;100205.22;4994165;28;20201;-74
2022/08/20 02:33:41;;;;;;;0.00;0.00;;;;;;;17.33;82.22;100207.09;4994170;28;20556;-74
2022/08/20 02:36:06;;;;;;;0.00;0.00;;;;;;;17.32;82.54;100211.03;4994400;28;20622;-74
2022/08/20 02:38:33;;;;;;;0.00;0.00;;;;;;;17.45;83.39;100203.41;4993465;28;20581;-74
2022/08/20 02:41:00;;;;;;;0.00;0.00;;;;;;;17.44;83.58;100208.13;4993147;28;20181;-74
2022/08/20 02:43:25;;;;;;;0.00;0.00;;;;;;;17.59;83.82;100209.22;4993977;28;20185;-75
2022/08/20 02:45:50;;;;;;;0.00;0.00;;;;;;;17.72;84.62;100216.22;4994039;28;20184;-76
2022/08/20 02:48:21;;;;;;;0.00;0.00;;;;;;;17.77;85.27;100209.59;4993681;28;20165;-75
2022/08/20 02:50:51;;;;;;;2.00;1.90;;;;;;;17.81;85.49;100213.25;4993714;28;20215;-74
2022/08/20 02:53:16;;;;;;;0.00;0.00;;;;;;;17.86;85.07;100217.66;4993016;28;20205;-75
2022/08/20 02:55:43;;;;;;;0.00;0.00;;;;;;;17.84;84.76;100227.13;4993991;28;20211;-75
2022/08/20 02:58:08;;;;;;;0.00;0.00;;;;;;;17.83;84.80;100224.72;4993593;28;20189;-75
2022/08/20 03:00:34;;;;;;;0.00;0.00;;;;;;;17.74;84.54;100218.63;4993480;28;20196;-74
2022/08/20 03:02:59;;;;;;;0.00;0.00;;;;;;;17.55;83.92;100222.16;4993703;28;20177;-75
2022/08/20 03:05:26;;;;;;;0.00;0.00;;;;;;;17.61;84.60;100226.22;4993692;28;20181;-75
2022/08/20 03:07:52;;;;;;;0.00;0.00;;;;;;;17.66;85.52;100225.94;4993244;28;20243;-74
2022/08/20 03:10:32;;;;;;;0.00;0.00;;;;;;;17.81;85.65;100230.63;4993108;28;20280;-75
2022/08/20 03:13:00;;;;;;;0.00;0.00;;;;;;;17.92;85.98;100235.53;4993631;28;20172;-75
2022/08/20 03:15:26;;;;;;;0.00;0.00;;;;;;;17.96;85.44;100233.66;4993417;28;20227;-75
2022/08/20 03:17:51;;;;;;;0.00;0.00;;;;;;;17.94;84.93;100241.50;4991893;28;20193;-75
2022/08/20 03:20:16;;;;;;;0.00;0.00;;;;;;;17.92;85.18;100241.06;4992909;28;20205;-74
2022/08/20 03:22:42;;;;;;;0.00;0.00;;;;;;;17.90;84.86;100235.91;4991910;28;20196;-75
2022/08/20 03:25:08;;;;;;;0.00;0.00;;;;;;;17.87;84.54;100233.88;4991933;28;20736;-75
2022/08/20 03:27:33;;;;;;;0.00;0.00;;;;;;;17.73;85.59;100233.59;4992730;28;20278;-74
2022/08/20 03:29:59;;;;;;;0.00;0.00;;;;;;;17.81;85.88;100241.69;4993076;28;20281;-75
2022/08/20 03:32:24;;;;;;;0.00;0.00;;;;;;;17.95;85.67;100241.16;4993048;28;20600;-75
2022/08/20 03:34:49;;;;;;;0.00;0.00;;;;;;;17.95;84.90;100235.63;4993220;28;20239;-75
2022/08/20 03:37:15;;;;;;;0.00;0.00;;;;;;;17.79;84.15;100232.94;4992764;28;20522;-74
2022/08/20 03:39:41;;;;;;;0.00;0.00;;;;;;;17.69;84.48;100241.81;4992088;28;20185;-75
2022/08/20 03:42:06;;;;;;;0.20;0.17;;;;;;;17.67;83.18;100246.88;4992860;28;20272;-75
2022/08/20 03:44:32;;;;;;;0.00;0.00;;;;;;;17.64;83.59;100244.84;4993172;28;20173;-75
2022/08/20 03:46:58;;;;;;;0.40;0.40;;;;;;;17.67;82.87;100246.09;4992342;28;20184;-75
2022/08/20 03:49:23;;;;;;;0.43;0.43;;;;;;;17.70;81.53;100254.47;4992393;28;20562;-74
2022/08/20 03:51:50;;;;;;;0.20;0.20;;;;;;;17.67;81.53;100249.66;4992602;28;20208;-74
2022/08/20 03:54:16;;;;;;;0.73;0.73;;;;;;;17.72;81.13;100254.91;4992547;28;20636;-75
2022/08/20 03:56:41;;;;;;;0.20;0.20;;;;;;;17.74;80.80;100255.34;4991826;28;20181;-74
2022/08/20 03:59:07;;;;;;;0.10;0.10;;;;;;;17.79;80.35;100262.53;4993952;28;20184;-74
2022/08/20 04:01:32;;;;;;;0.30;0.30;;;;;;;17.86;79.33;100261.88;4993053;28;20174;-74
2022/08/20 04:03:57;;;;;;;0.23;0.10;;;;;;;17.90;78.92;100257.22;4992985;28;20220;-74
2022/08/20 04:06:23;;;;;;;0.20;0.20;;;;;;;17.95;78.81;100262.47;4991886;28;20563;-74
2022/08/20 04:08:52;;;;;;;0.40;0.40;;;;;;;17.97;78.59;100265.66;4991403;28;20236;-74
2022/08/20 04:11:18;;;;;;;0.43;0.30;;;;;;;18.00;77.92;100268.50;4990791;28;20627;-74
2022/08/20 04:13:43;;;;;;;0.20;0.20;;;;;;;18.06;78.06;100274.50;4991815;28;20188;-74
2022/08/20 04:16:09;;;;;;;0.20;0.20;;;;;;;18.08;77.72;100261.13;4991605;28;20284;-74
2022/08/20 04:18:35;;;;;;;0.30;0.30;;;;;;;18.10;77.77;100261.56;4991453;28;20173;-74
2022/08/20 04:21:02;;;;;;;0.13;0.13;;;;;;;18.11;78.17;100265.94;4992015;28;20185;-74
2022/08/20 04:23:29;;;;;;;0.50;0.50;;;;;;;18.12;77.95;100260.03;4991969;28;20181;-74
2022/08/20 04:25:55;;;;;;;0.43;0.40;;;;;;;18.12;78.21;100264.75;4991704;28;20177;-74
2022/08/20 04:28:26;;;;;;;0.40;0.40;;;;;;;18.12;77.20;100260.03;4991612;28;20183;-76
2022/08/20 04:30:52;;;;;;;0.63;0.63;;;;;;;18.16;77.42;100273.13;4992076;28;20238;-74
2022/08/20 04:33:19;;;;;;;0.00;0.00;;;;;;;18.18;77.12;100279.88;4992904;28;20444;-75
2022/08/20 04:35:45;;;;;;;0.10;0.10;;;;;;;18.23;77.35;100281.56;4991836;28;20585;-75
2022/08/20 04:38:15;;;;;;;0.40;0.40;;;;;;;18.24;77.44;100275.66;4991586;28;20181;-76
2022/08/20 04:40:53;;;;;;;0.77;0.77;;;;;;;18.24;77.37;100272.09;4991266;28;20236;-75
2022/08/20 04:43:23;;;;;;;0.30;0.30;;;;;;;18.25;77.50;100270.94;4991931;28;20181;-75
2022/08/20 04:45:51;;;;;;;0.00;0.00;;;;;;;18.28;77.62;100284.03;4991651;28;20173;-75
2022/08/20 04:48:17;;;;;;;0.30;0.30;;;;;;;18.29;77.36;100280.09;4991465;28;20204;-75
2022/08/20 04:50:45;;;;;;;0.00;0.00;;;;;;;18.29;77.91;100275.34;4991376;28;20228;-75
2022/08/20 04:53:12;;;;;;;0.93;0.90;;;;;;;18.29;77.80;100280.88;4991455;28;20177;-75
2022/08/20 04:55:41;;;;;;;0.70;0.70;;;;;;;18.28;77.76;100287.59;4991443;28;20671;-75
2022/08/20 04:58:37;;;;;;;0.60;0.60;;;;;;;18.32;76.89;100282.91;4991381;28;20539;-75
2022/08/20 05:01:07;;;;;;;0.33;0.33;;;;;;;18.35;76.92;100289.66;4983104;28;20311;-75
2022/08/20 05:03:33;;;;;;;0.10;0.10;;;;;;;18.39;77.26;100291.34;4991418;28;20177;-75
2022/08/20 05:06:00;;;;;;;1.30;1.30;;;;;;;18.41;77.17;100296.50;4991301;28;20179;-75
2022/08/20 05:08:26;;;;;;;0.00;0.00;;;;;;;18.40;76.77;100295.72;4991263;28;20192;-75
2022/08/20 05:10:53;;;;;;;0.00;0.00;;;;;;;18.41;76.42;100289.00;4991271;28;20197;-75
2022/08/20 05:13:19;;;;;;;0.07;0.07;;;;;;;18.45;76.59;100286.31;4991360;28;20563;-74
2022/08/20 05:15:44;;;;;;;0.63;0.53;;;;;;;18.46;76.34;100295.41;4992626;28;20173;-75
2022/08/20 05:18:11;;;;;;;0.33;0.33;;;;;;;18.44;76.24;100293.81;4997611;28;20536;-75
2022/08/20 05:20:39;;;;;;;0.43;0.43;;;;;;;18.44;76.15;100298.53;4997709;28;20173;-76
2022/08/20 05:23:07;;;;;;;0.10;0.10;;;;;;;18.41;76.41;100299.28;4997921;28;20169;-77
2022/08/20 05:25:33;;;;;;;0.33;0.33;;;;;;;18.39;77.35;100301.63;4978255;28;20216;-77
2022/08/20 05:28:02;;;;;;;0.67;0.67;;;;;;;18.40;78.60;100294.91;4977967;28;20170;-77
2022/08/20 05:30:32;;;;;;;0.70;0.70;;;;;;;18.40;79.35;100303.22;4977812;28;20225;-76
2022/08/20 05:32:59;;;;;;;1.60;1.23;;;;;;;18.38;80.04;100303.59;4978093;28;20174;-77
2022/08/20 05:35:25;;;;;;;0.63;0.63;;;;;;;18.34;80.83;100299.94;4978185;28;20276;-79
2022/08/20 05:37:50;;;;;;;0.20;0.20;;;;;;;18.34;81.09;100299.13;4978035;28;20300;-78
2022/08/20 05:40:17;;;;;;;0.33;0.33;;;;;;;18.32;81.62;100296.75;4977358;28;20201;-77
2022/08/20 05:42:42;;;;;;;0.50;0.50;;;;;;;18.35;82.04;100303.50;4978186;28;20284;-75
2022/08/20 05:45:08;;;;;;;0.17;0.17;;;;;;;18.33;82.29;100301.09;4977994;28;20205;-75
2022/08/20 05:47:38;;;;;;;1.27;1.27;;;;;;;18.30;82.43;100315.66;4977842;28;20213;-76
2022/08/20 05:50:04;;;;;;;1.23;1.00;;;;;;;18.30;82.78;100314.88;4977701;28;20174;-76
2022/08/20 05:55:08;;;;;;;3.30;1.30;;;;;;;18.30;82.96;100325.94;5003700;22;20244;-75
2022/08/20 05:57:33;;;;;;;1.70;0.30;;;;;;;18.31;83.23;100320.03;4970031;28;20284;-74
2022/08/20 06:00:01;;;;;;;0.33;0.33;;;;;;;18.34;83.81;100316.53;4975884;28;20285;-75
2022/08/20 06:05:10;;;;;;;0.00;0.00;;;;;;;18.49;83.88;100314.81;4977310;28;20588;-75
2022/08/20 06:07:37;;;;;;;0.20;0.20;;;;;;;18.54;84.26;100309.00;4977516;28;20182;-76
2022/08/20 06:10:03;;;;;;;0.73;0.73;;;;;;;18.61;84.20;100306.34;4977293;28;20177;-75
2022/08/20 06:12:28;;;;;;;0.00;0.00;;;;;;;18.65;84.13;100307.22;4977706;28;20178;-83
2022/08/20 06:14:53;;;;;;;0.57;0.57;;;;;;;18.73;83.78;100310.94;4977182;28;20181;-75
2022/08/20 06:17:19;;;;;;;0.10;0.10;;;;;;;18.79;83.94;100306.66;4977481;28;20185;-75
2022/08/20 06:19:46;;;;;;;1.53;1.43;;;;;;;18.86;83.52;100309.56;4977610;28;20240;-76
2022/08/20 06:22:12;;;;;;;0.00;0.00;;;;;;;18.92;83.82;100319.16;4977675;28;20185;-76
2022/08/20 06:24:38;;;;;;;1.90;0.73;;;;;;;18.97;84.11;100320.84;4977021;28;20652;-76
2022/08/20 06:27:04;;;;;;;0.67;0.33;;;;;;;19.02;84.08;100315.75;4976375;28;20178;-76
2022/08/20 06:29:32;;;;;;;0.00;0.00;;;;;;;19.09;84.40;100323.38;4974239;28;20401;-76
2022/08/20 06:31:58;;;;;;;0.00;0.00;;;;;;;19.18;83.81;100317.59;4993996;28;20200;-76
2022/08/20 06:34:27;;;;;;;0.30;0.30;;;;;;;19.21;83.80;100314.84;4993782;28;20185;-76
2022/08/20 06:36:56;;;;;;;0.50;0.50;;;;;;;19.25;84.02;100318.50;4985420;28;20225;-77
2022/08/20 06:39:22;;;;;;;0.10;0.10;;;;;;;19.30;83.85;100322.91;4974411;28;20281;-76
2022/08/20 06:41:47;;;;;;;0.20;0.20;;;;;;;19.32;84.08;100328.88;4972976;28;20232;-76
2022/08/20 06:44:13;;;;;;;1.10;1.03;;;;;;;19.29;83.47;100326.84;4974260;28;20181;-76
2022/08/20 06:46:39;;;;;;;0.70;0.50;;;;;;;19.27;83.78;100327.22;4974343;28;20190;-76
2022/08/20 06:49:06;;;;;;;0.00;0.00;;;;;;;19.32;84.28;100321.38;4974258;28;20675;-76
2022/08/20 06:51:33;;;;;;;0.00;0.00;;;;;;;19.37;83.21;100325.78;4972947;28;20309;-76
2022/08/20 06:53:58;;;;;;;0.10;0.10;;;;;;;19.48;83.73;100318.41;4973356;28;20178;-76
2022/08/20 06:56:24;;;;;;;0.00;0.00;;;;;;;19.48;84.30;100314.84;4973762;28;20178;-76
2022/08/20 06:58:49;;;;;;;1.27;1.23;;;;;;;19.58;83.06;100317.81;4973903;28;20222;-76
2022/08/20 07:01:19;;;;;;;0.30;0.30;;;;;;;19.65;82.84;100317.09;4973344;28;20174;-76
2022/08/20 07:03:46;;;;;;;0.00;0.00;;;;;;;19.73;83.36;100323.53;4973782;28;20174;-76
2022/08/20 07:06:12;;;;;;;0.47;0.47;;;;;;;19.79;82.89;100327.56;4973689;28;20343;-76
2022/08/20 07:08:37;;;;;;;0.93;0.93;;;;;;;19.86;83.96;100333.22;4972416;28;20285;-76
2022/08/20 07:11:03;;;;;;;0.10;0.10;;;;;;;19.91;83.13;100325.34;4973488;28;20684;-76
2022/08/20 07:13:28;;;;;;;0.00;0.00;;;;;;;20.06;82.73;100331.06;4972086;28;20182;-77
2022/08/20 07:15:55;;;;;;;0.70;0.60;;;;;;;20.16;81.91;100325.66;4973620;28;20565;-76
2022/08/20 07:18:21;;;;;;;0.00;0.00;;;;;;;20.32;81.82;100336.53;4972178;28;20184;-76
2022/08/20 07:20:47;;;;;;;0.00;0.00;;;;;;;20.33;81.36;100335.34;4973529;28;20184;-76
2022/08/20 07:23:12;;;;;;;0.00;0.00;;;;;;;20.45;80.91;100349.00;4973314;28;20265;-76
2022/08/20 07:25:40;;;;;;;0.93;0.93;;;;;;;20.51;80.24;100346.66;4971990;28;20536;-76
2022/08/20 07:28:10;;;;;;;0.00;0.00;;;;;;;20.50;81.12;100350.63;4973485;28;20174;-76
2022/08/20 07:33:20;;;;;;;0.00;0.00;;;;;;;20.19;80.98;100352.63;4973024;28;20233;-76
2022/08/20 07:35:47;;;;;;;0.00;0.00;;;;;;;20.20;81.12;100358.97;4973293;28;20180;-76
2022/08/20 07:38:23;;;;;;;0.00;0.00;;;;;;;20.14;81.30;100358.53;4973311;28;20172;-76
2022/08/20 07:40:57;;;;;;;0.00;0.00;;;;;;;20.26;80.66;100359.47;4972867;28;20174;-76
2022/08/20 07:43:23;;;;;;;0.00;0.00;;;;;;;20.34;81.26;100359.16;4972873;28;20710;-76
2022/08/20 07:45:54;;;;;;;0.00;0.00;;;;;;;20.53;80.02;100363.72;4973535;28;20177;-74
2022/08/20 07:48:20;;;;;;;0.10;0.10;;;;;;;20.62;79.06;100369.78;4972934;28;20269;-76
2022/08/20 07:50:48;;;;;;;0.00;0.00;;;;;;;20.69;79.63;100357.97;4973087;28;20280;-76
2022/08/20 07:53:14;;;;;;;0.00;0.00;;;;;;;20.74;79.76;100366.75;4973237;28;20564;-77
2022/08/20 07:55:40;;;;;;;0.10;0.10;;;;;;;20.50;78.79;100358.94;4972540;28;20242;-76
2022/08/20 07:58:10;;;;;;;0.00;0.00;;;;;;;20.50;78.93;100364.50;4973306;28;20193;-77
2022/08/20 08:00:36;;;;;;;0.00;0.00;;;;;;;20.60;78.94;100363.81;4978148;28;20170;-77
2022/08/20 08:03:01;;;;;;;0.40;0.40;;;;;;;20.78;78.97;100362.00;4972744;28;20225;-77
2022/08/20 08:05:28;;;;;;;0.00;0.00;;;;;;;20.93;78.39;100376.81;4972904;28;20170;-77
2022/08/20 08:07:54;;;;;;;0.60;0.60;;;;;;;21.13;77.31;100376.63;4973016;28;20259;-77
2022/08/20 08:10:21;;;;;;;0.00;0.00;;;;;;;21.20;77.04;100368.31;4972840;28;20258;-77
2022/08/20 08:12:51;;;;;;;0.00;0.00;;;;;;;21.32;77.02;100365.28;4972937;28;20445;-77
2022/08/20 08:15:28;;;;;;;0.33;0.33;;;;;;;21.41;76.65;100362.13;4972448;28;20324;-74
2022/08/20 08:17:57;;;;;;;0.00;0.00;;;;;;;21.43;77.21;100359.78;4972710;28;20930;-77
2022/08/20 08:20:23;;;;;;;0.17;0.17;;;;;;;21.47;77.25;100364.19;4972426;28;20202;-77
2022/08/20 08:22:50;;;;;;;0.67;0.67;;;;;;;21.43;76.17;100368.94;4972509;28;20255;-77
2022/08/20 08:25:16;;;;;;;0.00;0.00;;;;;;;21.47;75.90;100368.94;4972159;28;20752;-76
2022/08/20 08:27:42;;;;;;;0.00;0.00;;;;;;;21.48;76.45;100381.66;4972358;28;20209;-77
2022/08/20 08:30:08;;;;;;;2.00;1.90;;;;;;;21.56;77.21;100389.69;4972290;28;20176;-77
2022/08/20 08:33:26;;;;;;;0.93;0.93;;;;;;;21.49;77.02;100389.63;4972227;28;20184;-77
2022/08/20 08:35:22;;;;;;;1.00;0.73;;;;;;;21.57;77.38;100393.25;4971841;28;20194;-77
2022/08/20 08:37:48;;;;;;;0.00;0.00;;;;;;;21.62;77.78;100388.13;4972266;28;20200;-77
2022/08/20 08:40:13;;;;;;;0.57;0.57;;;;;;;21.55;76.52;100387.25;4972140;28;20189;-77
2022/08/20 08:42:43;;;;;;;0.40;0.40;;;;;;;21.54;76.88;100396.78;4972128;28;20247;-77
2022/08/20 08:45:11;;;;;;;0.00;0.00;;;;;;;21.46;76.19;100386.81;4971881;28;20177;-76
2022/08/20 08:47:38;;;;;;;0.00;0.00;;;;;;;21.67;76.81;100395.28;4972121;28;20266;-77
2022/08/20 08:50:06;;;;;;;0.00;0.00;;;;;;;21.92;76.60;100403.78;4972120;28;20234;-77
2022/08/20 08:52:36;;;;;;;0.23;0.23;;;;;;;21.75;75.63;100396.94;4971540;28;20706;-75
2022/08/20 08:55:05;;;;;;;0.00;0.00;;;;;;;21.66;76.34;100388.91;4971474;28;20280;-74
2022/08/20 08:57:31;;;;;;;0.00;0.00;;;;;;;21.91;76.45;100391.06;4970532;28;20264;-74
2022/08/20 09:00:12;;;;;;;0.57;0.57;;;;;;;21.96;74.74;100402.59;4971932;28;20651;-74
2022/08/20 09:02:37;;;;;;;0.00;0.00;;;;;;;22.17;74.82;100407.53;4971391;28;20181;-74
2022/08/20 09:05:13;;;;;;;0.30;0.30;;;;;;;22.16;74.57;100405.13;4971745;28;20265;-74
2022/08/20 09:07:42;;;;;;;0.00;0.00;;;;;;;22.17;74.81;100403.94;4971742;28;20180;-74
2022/08/20 09:10:08;;;;;;;0.00;0.00;;;;;;;22.35;73.44;100401.22;4971722;28;20201;-75
2022/08/20 09:12:33;;;;;;;0.20;0.20;;;;;;;22.39;74.17;100393.66;4971642;28;20725;-76
2022/08/20 09:14:58;;;;;;;0.00;0.00;;;;;;;22.46;73.69;100402.84;4971552;28;20197;-76
2022/08/20 09:17:24;;;;;;;0.00;0.00;;;;;;;22.63;74.14;100406.09;4971722;28;20671;-77
2022/08/20 09:19:51;;;;;;;0.10;0.10;;;;;;;22.80;73.11;100402.53;4971722;28;20206;-76
2022/08/20 09:22:19;;;;;;;2.73;2.60;;;;;;;22.98;72.56;100399.78;4971440;28;20684;-77
2022/08/20 09:24:45;;;;;;;1.73;1.53;;;;;;;23.07;72.93;100397.41;4971241;28;20523;-76
2022/08/20 09:27:11;;;;;;;1.70;1.57;;;;;;;22.86;72.25;100398.22;4971601;28;20181;-76
2022/08/20 09:29:37;;;;;;;0.00;0.00;;;;;;;22.58;74.30;100400.91;4971564;28;20170;-77
2022/08/20 09:32:10;;;;;;;0.63;0.50;;;;;;;22.40;73.70;100398.03;4970100;28;20213;-77
2022/08/20 09:34:41;;;;;;;0.00;0.00;;;;;;;22.59;73.58;100394.94;4971212;28;20171;-76
2022/08/20 09:37:07;;;;;;;0.00;0.00;;;;;;;22.59;73.27;100399.72;4971547;28;20182;-76
2022/08/20 09:39:33;;;;;;;2.10;2.00;;;;;;;22.64;73.51;100396.53;4971569;28;20175;-77
2022/08/20 09:42:09;;;;;;;0.53;0.53;;;;;;;22.67;73.32;100395.72;4971483;28;20276;-76
2022/08/20 09:44:35;;;;;;;5.90;2.90;;;;;;;22.53;73.84;100393.72;4971287;28;20205;-76
2022/08/20 09:47:00;;;;;;;0.00;0.00;;;;;;;22.53;73.30;100402.06;4971451;28;20212;-76
2022/08/20 09:49:26;;;;;;;0.63;0.63;;;;;;;22.73;74.08;100397.75;4971274;28;20185;-76
2022/08/20 09:51:51;;;;;;;3.87;3.53;;;;;;;22.76;72.34;100393.38;4971272;28;20205;-77
2022/08/20 09:54:17;;;;;;;3.00;2.80;;;;;;;22.70;71.83;100400.50;4970855;28;20270;-77
2022/08/20 09:56:42;;;;;;;0.00;0.00;;;;;;;22.54;72.25;100395.31;4971258;28;20180;-76
2022/08/20 09:59:07;;;;;;;2.73;1.93;;;;;;;22.53;72.03;100402.84;4971439;28;20265;-76
2022/08/20 10:01:33;;;;;;;0.57;0.57;;;;;;;22.60;72.09;100395.72;4970820;28;20254;-76
2022/08/20 10:03:58;;;;;;;0.20;0.10;;;;;;;22.67;72.15;100390.16;4973451;28;20174;-77
2022/08/20 10:06:23;;;;;;;0.00;0.00;;;;;;;22.66;71.92;100406.09;4975009;28;20178;-76
2022/08/20 10:08:49;;;;;;;0.00;0.00;;;;;;;22.75;71.49;100397.34;4974844;28;20182;-77
2022/08/20 10:11:14;;;;;;;1.07;1.07;;;;;;;22.66;70.98;100399.72;4974839;28;20286;-76
2022/08/20 10:13:40;;;;;;;2.10;2.00;;;;;;;22.51;72.06;100399.69;4974535;28;20634;-76
2022/08/20 10:16:05;;;;;;;0.10;0.10;;;;;;;22.34;72.30;100403.22;4974704;28;20268;-76
2022/08/20 10:18:31;;;;;;;1.33;1.23;;;;;;;22.27;72.83;100400.38;4974664;28;20174;-76
2022/08/20 10:20:56;;;;;;;2.60;2.40;;;;;;;22.23;73.48;100405.16;4974574;28;20187;-76
2022/08/20 10:23:21;;;;;;;0.23;0.23;;;;;;;22.32;73.71;100404.78;4974417;28;20174;-76
2022/08/20 10:25:47;;;;;;;0.00;0.00;;;;;;;22.40;73.68;100409.97;4974550;28;20185;-77
2022/08/20 10:28:12;;;;;;;0.83;0.83;;;;;;;22.55;72.99;100408.03;4974506;28;20699;-74
2022/08/20 10:30:37;;;;;;;0.33;0.27;;;;;;;22.68;72.52;100408.47;4974292;28;20730;-77
2022/08/20 10:33:03;;;;;;;0.57;0.57;;;;;;;22.55;71.39;100400.47;4974433;28;20186;-76
2022/08/20 10:35:28;;;;;;;0.50;0.40;;;;;;;22.51;71.48;100404.44;4972910;28;20724;-76
2022/08/20 10:37:54;;;;;;;0.63;0.63;;;;;;;22.68;70.81;100408.47;4974278;28;20207;-76
2022/08/20 10:40:19;;;;;;;2.23;2.00;;;;;;;22.61;71.40;100406.47;4974366;28;20171;-76
2022/08/20 10:42:44;;;;;;;0.10;0.10;;;;;;;22.75;71.53;100403.72;4974254;28;20178;-77
2022/08/20 10:45:11;;;;;;;0.00;0.00;;;;;;;22.93;70.63;100403.78;4973875;28;20182;-77
2022/08/20 10:47:36;;;;;;;0.00;0.00;;;;;;;23.02;69.91;100406.97;4974201;28;20178;-76
2022/08/20 10:50:04;;;;;;;0.60;0.60;;;;;;;23.18;69.97;100414.94;4972945;28;20581;-76
2022/08/20 10:52:30;;;;;;;0.37;0.37;;;;;;;23.33;69.02;100405.38;4974020;28;20216;-74
2022/08/20 10:54:55;;;;;;;1.03;1.03;;;;;;;23.35;68.16;100413.34;4973724;28;20182;-74
2022/08/20 10:57:27;;;;;;;0.40;0.40;;;;;;;23.24;67.81;100404.19;4974383;28;20178;-74
2022/08/20 10:59:54;;;;;;;0.00;0.00;;;;;;;23.11;69.17;100398.22;4973872;28;20174;-74
2022/08/20 11:02:21;;;;;;;0.20;0.17;;;;;;;22.99;68.26;100396.59;4973452;28;20185;-76
2022/08/20 11:04:47;;;;;;;0.00;0.00;;;;;;;23.12;68.95;100403.38;4973795;28;20252;-77
2022/08/20 11:07:26;;;;;;;0.93;0.93;;;;;;;23.44;69.67;100399.81;4973862;28;20263;-76
2022/08/20 11:09:51;;;;;;;0.47;0.47;;;;;;;23.67;67.82;100413.34;4973338;28;20180;-77
2022/08/20 11:12:18;;;;;;;0.00;0.00;;;;;;;23.75;66.12;100409.34;4972928;28;20213;-77
2022/08/20 11:14:44;;;;;;;0.03;0.03;;;;;;;23.69;65.07;100414.53;4972348;28;20185;-76
2022/08/20 11:17:10;;;;;;;2.83;2.63;;;;;;;23.51;66.90;100416.53;4972335;28;20185;-76
2022/08/20 11:19:41;;;;;;;0.40;0.40;;;;;;;23.23;67.51;100420.13;4973578;28;20546;-76
2022/08/20 11:22:07;;;;;;;0.60;0.60;;;;;;;23.04;68.16;100421.31;4974089;28;20181;-76
2022/08/20 11:24:32;;;;;;;1.53;1.43;;;;;;;22.68;73.92;100420.41;4973563;28;20193;-76
2022/08/20 11:26:57;;;;;;;2.67;2.57;;;;;;;22.33;78.14;100432.25;4973635;28;20180;-76
2022/08/20 11:29:23;;;;;;;2.33;2.23;;;;;;;21.80;81.53;100427.16;4973473;28;20188;-77
2022/08/20 11:31:49;;;;;;;1.43;1.37;;;;;;;21.55;85.75;100434.53;4973427;28;20205;-77
2022/08/20 11:34:15;;;;;;;3.07;2.87;;;;;;;21.27;90.90;100435.91;4973144;28;20176;-77